This is the latest recevied weather packets stored in our database for station/object SV9TNF-52. If no packets are shown the sender has not sent any weather packets the latest 10 day(s).
| Time | Temp. | Humidity | Pressure | Rain* | Wind** | Luminosity | Snow |
|---|---|---|---|---|---|---|---|
| 1788619666 | 29.44° C | 53% | 1022.4 hPa | 0 mm | 4.92 m/s, 343° | - | - |
| 1788619365 | 30° C | 54% | 1022.4 hPa | 0 mm | 3.58 m/s, 193° | - | - |
| 1788619065 | 30° C | 52% | 1022.4 hPa | 0 mm | 4.92 m/s, 255° | - | - |
| 1788618765 | 30° C | 53% | 1022 hPa | 0 mm | 2.68 m/s, 237° | - | - |
| 1788618465 | 29.44° C | 54% | 1022 hPa | 0 mm | 4.47 m/s, 38° | - | - |
| 1788618166 | 29.44° C | 54% | 1022 hPa | 0 mm | 6.26 m/s, 350° | - | - |
| 1788617865 | 29.44° C | 54% | 1022 hPa | 0 mm | 4.47 m/s, 233° | - | - |
| 1788617565 | 29.44° C | 54% | 1022 hPa | 0 mm | 3.58 m/s, 212° | - | - |
| 1788617296 | 30° C | 53% | 1022 hPa | 0 mm | 2.24 m/s, 270° | - | - |
| 1788616964 | 29.44° C | 54% | 1022 hPa | 0 mm | 4.92 m/s, 275° | - | - |
| 1788616665 | 29.44° C | 53% | 1022 hPa | 0 mm | 4.92 m/s, 357° | - | - |
| 1788616365 | 29.44° C | 53% | 1022 hPa | 0 mm | 8.94 m/s, 326° | - | - |
| 1788616064 | 29.44° C | 53% | 1021.7 hPa | 0 mm | 2.68 m/s, 27° | - | - |
| 1788615764 | 29.44° C | 52% | 1021.7 hPa | 0 mm | 9.83 m/s, 329° | - | - |
| 1788615464 | 30.56° C | 53% | 1021.7 hPa | 0 mm | 4.92 m/s, 32° | - | - |
| 1788615164 | 29.44° C | 52% | 1022 hPa | 0 mm | 6.26 m/s, 319° | - | - |
| 1788614864 | 30.56° C | 51% | 1022 hPa | 0 mm | 3.58 m/s, 287° | - | - |
| 1788614564 | 30° C | 52% | 1022 hPa | 0 mm | 8.05 m/s, 22° | - | - |
| 1788614264 | 29.44° C | 53% | 1022 hPa | 0 mm | 7.15 m/s, 323° | - | - |
| 1788613963 | 29.44° C | 51% | 1022 hPa | 0 mm | 9.39 m/s, 294° | - | - |
| 1788613664 | 29.44° C | 53% | 1022 hPa | 0 mm | 5.81 m/s, 9° | - | - |
| 1788613363 | 30° C | 53% | 1022 hPa | 0 mm | 7.6 m/s, 82° | - | - |
| 1788613063 | 30.56° C | 51% | 1022 hPa | 0 mm | 4.02 m/s, 8° | - | - |
| 1788612763 | 30.56° C | 54% | 1022 hPa | 0 mm | 6.71 m/s, 304° | - | - |
| 1788612463 | 29.44° C | 52% | 1021.7 hPa | 0 mm | 6.71 m/s, 326° | - | - |
* Rain latest hour (hover to see other rain measurements)
** Current wind speed in m/s (hover to see current wind gust speed)